Time;durP1;ratioP1;P1;durP2;ratioP2;P2;SDS_P1;SDS_P2;PMS_P1;PMS_P2;Temp;Humidity;BMP_temperature;BMP_pressure;BME280_temperature;BME280_humidity;BME280_pressure;Samples;Min_cycle;Max_cycle;Signal;HPM_P1;HPM_P2
2022/06/24 00:01:04;;;;;;;;;;;;;;;16.39;50.44;100484.50;4941672;29;991;-45
2022/06/24 00:03:30;;;;;;;;;;;;;;;18.12;51.06;100486.44;4969623;28;1938;-50
2022/06/24 00:05:56;;;;;;;;;;;;;;;17.02;52.63;100485.91;4943200;29;1144;-48
2022/06/24 00:08:21;;;;;;;;;;;;;;;16.73;52.09;100487.41;4942230;29;1145;-48
2022/06/24 00:10:46;;;;;;;;;;;;;;;16.57;51.51;100492.13;4941482;29;960;-43
2022/06/24 00:13:12;;;;;;;;;;;;;;;16.53;51.17;100490.22;4959284;28;955;-46
2022/06/24 00:15:38;;;;;;;;;;;;;;;16.48;50.52;100491.06;4958605;28;980;-48
2022/06/24 00:18:12;;;;;;;;;;;;;;;16.41;50.54;100491.38;4959423;28;1110;-47
2022/06/24 00:20:41;;;;;;;;;;;;;;;16.37;50.12;100493.03;4960711;28;2530;-48
2022/06/24 00:23:07;;;;;;;;;;;;;;;16.25;50.00;100498.00;4958511;28;1976;-50
2022/06/24 00:25:33;;;;;;;;;;;;;;;17.34;51.23;100499.16;4959068;28;1046;-49
2022/06/24 00:27:58;;;;;;;;;;;;;;;16.67;51.85;100496.75;4942956;29;1202;-47
2022/06/24 00:30:24;;;;;;;;;;;;;;;16.52;51.40;100494.06;4958926;29;1019;-49
2022/06/24 00:32:49;;;;;;;;;;;;;;;16.41;50.84;100493.28;4958803;28;1184;-48
2022/06/24 00:35:15;;;;;;;;;;;;;;;18.20;51.01;100503.41;4958916;28;1067;-49
2022/06/24 00:37:41;;;;;;;;;;;;;;;16.98;52.57;100495.81;4958418;28;999;-45
2022/06/24 00:40:09;;;;;;;;;;;;;;;16.76;52.22;100500.56;4958832;29;956;-46
2022/06/24 00:42:42;;;;;;;;;;;;;;;16.65;51.53;100503.63;4958326;28;1973;-45
2022/06/24 00:45:14;;;;;;;;;;;;;;;16.53;51.26;100490.22;4958744;29;1149;-48
2022/06/24 00:47:39;;;;;;;;;;;;;;;16.50;50.43;100491.59;4958638;28;1150;-49
2022/06/24 00:50:06;;;;;;;;;;;;;;;16.40;50.71;100483.41;4958202;29;925;-48
2022/06/24 00:52:36;;;;;;;;;;;;;;;16.35;50.31;100484.22;4958890;28;2753;-49
2022/06/24 00:55:01;;;;;;;;;;;;;;;16.30;50.39;100486.16;4941235;29;1101;-47
2022/06/24 00:57:29;;;;;;;;;;;;;;;16.35;50.07;100486.97;4958550;28;1073;-48
2022/06/24 00:59:55;;;;;;;;;;;;;;;16.34;49.98;100490.00;4941052;28;1232;-49
2022/06/24 01:02:20;;;;;;;;;;;;;;;16.24;50.07;100485.38;4925143;29;2039;-49
2022/06/24 01:04:46;;;;;;;;;;;;;;;16.39;50.75;100479.84;4958380;28;994;-51
2022/06/24 01:07:11;;;;;;;;;;;;;;;17.67;51.16;100484.91;4964395;28;1048;-47
2022/06/24 01:09:37;;;;;;;;;;;;;;;16.77;52.00;100484.91;4958301;29;975;-50
2022/06/24 01:12:02;;;;;;;;;;;;;;;16.55;51.59;100477.88;4957872;28;1065;-45
2022/06/24 01:14:28;;;;;;;;;;;;;;;16.46;51.17;100474.06;4957455;28;1077;-49
2022/06/24 01:16:53;;;;;;;;;;;;;;;16.41;51.00;100471.31;4957561;29;1010;-48
2022/06/24 01:19:19;;;;;;;;;;;;;;;16.35;50.53;100466.97;4957777;28;1438;-48
2022/06/24 01:21:45;;;;;;;;;;;;;;;16.30;50.31;100478.78;4958351;28;2610;-49
2022/06/24 01:24:21;;;;;;;;;;;;;;;18.09;50.93;100476.00;4958264;28;1184;-47
2022/06/24 01:26:47;;;;;;;;;;;;;;;16.85;52.34;100472.53;4957312;28;1031;-48
2022/06/24 01:29:13;;;;;;;;;;;;;;;16.62;51.53;100479.47;4960111;28;1142;-49
2022/06/24 01:31:40;;;;;;;;;;;;;;;16.48;51.15;100477.34;4961238;28;1014;-49
2022/06/24 01:34:06;;;;;;;;;;;;;;;16.43;50.60;100469.13;4957919;28;1058;-48
2022/06/24 01:36:31;;;;;;;;;;;;;;;16.36;50.42;100485.88;4957489;29;995;-48
2022/06/24 01:38:57;;;;;;;;;;;;;;;17.48;51.44;100484.78;4957677;28;1057;-49
2022/06/24 01:41:22;;;;;;;;;;;;;;;16.84;52.11;100484.59;4957549;28;1220;-46
2022/06/24 01:43:48;;;;;;;;;;;;;;;16.60;51.56;100486.06;4957440;29;1914;-46
2022/06/24 01:46:13;;;;;;;;;;;;;;;17.34;52.19;100492.84;4959959;28;1113;-49
2022/06/24 01:48:39;;;;;;;;;;;;;;;17.54;52.26;100494.63;4957876;29;1041;-49
2022/06/24 01:51:05;;;;;;;;;;;;;;;16.91;52.44;100482.41;4950842;28;2593;-48
2022/06/24 01:53:30;;;;;;;;;;;;;;;16.77;51.51;100490.41;4939465;29;853;-49
2022/06/24 01:55:56;;;;;;;;;;;;;;;16.62;51.33;100482.22;4963364;28;968;-49
2022/06/24 01:58:21;;;;;;;;;;;;;;;16.55;50.92;100482.53;4957848;29;1139;-50
2022/06/24 02:00:47;;;;;;;;;;;;;;;16.45;50.60;100483.38;4961751;28;999;-49
2022/06/24 02:03:12;;;;;;;;;;;;;;;16.37;50.28;100487.53;4957468;28;1969;-49
2022/06/24 02:05:38;;;;;;;;;;;;;;;16.30;50.20;100492.50;4963164;28;1010;-49
2022/06/24 02:08:03;;;;;;;;;;;;;;;16.32;50.20;100490.28;4945571;29;1108;-49
2022/06/24 02:13:27;;;;;;;;;;;;;;;16.84;51.97;100487.34;4957147;28;959;-49
2022/06/24 02:15:57;;;;;;;;;;;;;;;16.58;51.46;100492.97;4960213;28;1221;-49
2022/06/24 02:18:22;;;;;;;;;;;;;;;16.51;50.96;100486.94;4956968;29;999;-50
2022/06/24 02:20:48;;;;;;;;;;;;;;;16.42;50.67;100484.78;4957950;28;2582;-50
2022/06/24 02:23:13;;;;;;;;;;;;;;;16.30;50.45;100484.28;4957435;28;1973;-50
2022/06/24 02:25:39;;;;;;;;;;;;;;;17.74;51.16;100480.72;4957542;28;1122;-49
2022/06/24 02:28:04;;;;;;;;;;;;;;;16.91;52.05;100482.41;4958095;29;1442;-50
2022/06/24 02:30:30;;;;;;;;;;;;;;;16.63;51.65;100490.19;4957155;28;998;-48
2022/06/24 02:32:55;;;;;;;;;;;;;;;16.52;51.36;100483.94;4957396;28;1173;-49
2022/06/24 02:35:21;;;;;;;;;;;;;;;16.42;50.76;100490.28;4957316;28;1078;-50
2022/06/24 02:37:46;;;;;;;;;;;;;;;16.37;50.56;100478.50;4957565;28;1145;-49
2022/06/24 02:42:56;;;;;;;;;;;;;;;16.21;50.23;100483.19;4960750;28;1884;-46
2022/06/24 02:45:21;;;;;;;;;;;;;;;17.22;51.05;100484.94;4959940;28;1051;-46
2022/06/24 02:47:47;;;;;;;;;;;;;;;16.58;51.81;100485.53;4943154;28;1157;-49
2022/06/24 02:50:12;;;;;;;;;;;;;;;16.49;51.17;100478.16;4964436;28;1007;-48
2022/06/24 02:52:38;;;;;;;;;;;;;;;16.35;50.75;100470.50;4955233;28;2889;-50
2022/06/24 02:55:03;;;;;;;;;;;;;;;17.92;51.02;100478.38;4947556;28;1201;-47
2022/06/24 02:57:29;;;;;;;;;;;;;;;17.11;52.26;100489.72;4959996;29;868;-49
2022/06/24 02:59:54;;;;;;;;;;;;;;;16.74;51.94;100491.78;4960159;28;1114;-47
2022/06/24 03:02:19;;;;;;;;;;;;;;;16.66;51.20;100495.13;4960776;28;1965;-47
2022/06/24 03:04:45;;;;;;;;;;;;;;;16.50;50.98;100483.38;4962244;28;1003;-47
2022/06/24 03:07:10;;;;;;;;;;;;;;;16.47;50.72;100480.38;4964576;28;924;-49
2022/06/24 03:09:36;;;;;;;;;;;;;;;16.41;50.28;100485.88;4960670;28;1054;-45
2022/06/24 03:12:01;;;;;;;;;;;;;;;16.32;50.08;100492.22;4961308;28;1003;-48
2022/06/24 03:14:27;;;;;;;;;;;;;;;16.28;50.16;100488.38;4961837;28;1062;-48
2022/06/24 03:16:52;;;;;;;;;;;;;;;16.23;50.03;100481.00;4965331;28;1090;-52
2022/06/24 03:19:17;;;;;;;;;;;;;;;17.37;50.78;100484.84;4961689;28;1730;-52
2022/06/24 03:21:43;;;;;;;;;;;;;;;17.12;51.75;100490.53;4959242;28;2554;-53
2022/06/24 03:24:08;;;;;;;;;;;;;;;16.70;52.02;100485.19;4962249;28;1010;-51
2022/06/24 03:26:34;;;;;;;;;;;;;;;16.55;51.25;100488.00;4959718;28;1051;-53
2022/06/24 03:28:59;;;;;;;;;;;;;;;16.49;50.72;100494.63;4959797;28;1126;-54
2022/06/24 03:31:24;;;;;;;;;;;;;;;16.40;50.53;100495.22;4959610;29;1047;-54
2022/06/24 03:33:50;;;;;;;;;;;;;;;17.06;51.23;100501.53;4959772;28;1125;-55
2022/06/24 03:36:15;;;;;;;;;;;;;;;17.26;51.87;100514.34;4958502;29;863;-55
2022/06/24 03:38:41;;;;;;;;;;;;;;;16.81;52.01;100512.63;4959815;28;868;-53
2022/06/24 03:41:06;;;;;;;;;;;;;;;16.63;51.49;100506.66;4959675;29;1019;-52
2022/06/24 03:43:32;;;;;;;;;;;;;;;16.51;51.02;100508.88;4959854;28;1906;-53
2022/06/24 03:46:01;;;;;;;;;;;;;;;16.52;50.51;100505.88;4968584;28;1086;-51
2022/06/24 03:48:27;;;;;;;;;;;;;;;16.43;50.25;100502.88;4959423;29;928;-52
2022/06/24 03:50:52;;;;;;;;;;;;;;;16.33;50.47;100508.41;4960035;28;2448;-52
2022/06/24 03:53:18;;;;;;;;;;;;;;;16.31;50.17;100512.53;4959349;28;1136;-46
2022/06/24 03:55:47;;;;;;;;;;;;;;;16.21;50.16;100505.94;4961518;28;1223;-50
2022/06/24 03:58:12;;;;;;;;;;;;;;;17.98;51.02;100510.25;4959445;28;1153;-51
2022/06/24 04:00:38;;;;;;;;;;;;;;;16.89;52.13;100509.34;4958191;29;1247;-51
2022/06/24 04:03:03;;;;;;;;;;;;;;;16.64;51.84;100502.81;4965157;28;1898;-48
2022/06/24 04:05:29;;;;;;;;;;;;;;;16.48;51.34;100507.53;4963834;28;1437;-52
2022/06/24 04:07:56;;;;;;;;;;;;;;;16.48;51.12;100503.97;4965665;28;1054;-52
2022/06/24 04:10:21;;;;;;;;;;;;;;;16.43;50.68;100513.84;4946292;28;997;-51
2022/06/24 04:12:47;;;;;;;;;;;;;;;16.32;50.34;100501.25;4960727;28;878;-51
2022/06/24 04:15:17;;;;;;;;;;;;;;;16.33;50.10;100502.09;4958178;29;1035;-51
2022/06/24 04:17:43;;;;;;;;;;;;;;;16.29;50.33;100509.25;4957406;28;1157;-48
2022/06/24 04:20:08;;;;;;;;;;;;;;;16.39;50.61;100523.75;4956925;29;1003;-52
2022/06/24 04:22:34;;;;;;;;;;;;;;;17.24;51.18;100521.22;4956895;28;2331;-51
2022/06/24 04:24:59;;;;;;;;;;;;;;;16.71;51.73;100525.28;4956751;29;1050;-52
2022/06/24 04:27:25;;;;;;;;;;;;;;;16.50;51.40;100529.22;4958644;28;1299;-50
2022/06/24 04:29:51;;;;;;;;;;;;;;;16.42;51.06;100527.84;4958597;28;940;-53
2022/06/24 04:32:16;;;;;;;;;;;;;;;16.38;50.98;100522.13;4959939;28;1399;-52
2022/06/24 04:34:42;;;;;;;;;;;;;;;16.39;50.48;100521.00;4958495;29;1565;-51
2022/06/24 04:37:07;;;;;;;;;;;;;;;16.28;50.47;100515.81;4959156;28;923;-51
2022/06/24 04:39:33;;;;;;;;;;;;;;;16.32;50.25;100516.91;4958957;28;1485;-49
2022/06/24 04:41:58;;;;;;;;;;;;;;;16.28;50.21;100515.81;4954319;28;1914;-50
2022/06/24 04:44:24;;;;;;;;;;;;;;;16.18;50.42;100511.19;4961103;28;1055;-48
2022/06/24 04:46:49;;;;;;;;;;;;;;;16.24;49.84;100504.56;4959657;28;1280;-52
2022/06/24 04:49:14;;;;;;;;;;;;;;;16.19;50.11;100513.63;4955335;29;1378;-52
2022/06/24 04:51:40;;;;;;;;;;;;;;;16.13;50.09;100511.19;4955655;29;2080;-48
2022/06/24 04:54:05;;;;;;;;;;;;;;;17.31;50.79;100510.72;4953972;29;1169;-51
2022/06/24 04:56:31;;;;;;;;;;;;;;;16.96;51.65;100515.34;4955237;29;1220;-51
2022/06/24 04:58:56;;;;;;;;;;;;;;;16.60;52.08;100512.72;4955400;29;1181;-51
2022/06/24 05:01:22;;;;;;;;;;;;;;;16.40;51.62;100514.41;4953451;29;1260;-52
2022/06/24 05:03:47;;;;;;;;;;;;;;;16.48;50.80;100510.28;4959114;28;1910;-49
2022/06/24 05:06:13;;;;;;;;;;;;;;;16.37;50.92;100505.94;4956960;29;1133;-50
2022/06/24 05:08:38;;;;;;;;;;;;;;;17.15;51.21;100510.00;4958297;28;1181;-50
2022/06/24 05:11:05;;;;;;;;;;;;;;;16.96;52.12;100515.34;4957934;28;1082;-51
2022/06/24 05:13:30;;;;;;;;;;;;;;;16.63;52.14;100509.41;4954889;28;1437;-52
2022/06/24 05:15:57;;;;;;;;;;;;;;;16.54;51.71;100514.66;4962105;28;1167;-52
2022/06/24 05:18:23;;;;;;;;;;;;;;;16.45;51.41;100521.00;4956927;29;1386;-52
2022/06/24 05:20:48;;;;;;;;;;;;;;;16.45;50.88;100518.25;4961701;28;1954;-49
2022/06/24 05:23:14;;;;;;;;;;;;;;;16.38;50.76;100526.75;4956873;28;1899;-51
2022/06/24 05:25:39;;;;;;;;;;;;;;;16.36;50.58;100516.06;4959091;28;1452;-52
2022/06/24 05:28:05;;;;;;;;;;;;;;;16.36;50.54;100512.50;4956745;28;995;-52
2022/06/24 05:30:30;;;;;;;;;;;;;;;16.24;50.54;100510.91;4956080;29;876;-52
2022/06/24 05:32:56;;;;;;;;;;;;;;;16.31;50.23;100532.53;4959044;28;1010;-51
2022/06/24 05:35:21;;;;;;;;;;;;;;;16.27;50.21;100528.72;4954828;28;1157;-54
2022/06/24 05:37:47;;;;;;;;;;;;;;;17.09;51.29;100536.69;4955677;28;1157;-54
2022/06/24 05:40:12;;;;;;;;;;;;;;;17.68;51.62;100536.84;4956170;28;1441;-51
2022/06/24 05:42:38;;;;;;;;;;;;;;;16.90;52.40;100541.16;4963029;28;1906;-51
2022/06/24 05:45:03;;;;;;;;;;;;;;;16.73;52.01;100522.25;4955960;28;1287;-49
2022/06/24 05:47:29;;;;;;;;;;;;;;;16.64;51.35;100524.78;4955898;28;1188;-51
2022/06/24 05:49:54;;;;;;;;;;;;;;;16.51;51.52;100528.09;4956183;28;1517;-52
2022/06/24 05:55:05;;;;;;;;;;;;;;;16.69;51.66;100527.50;4917048;29;1201;-51
2022/06/24 05:57:31;;;;;;;;;;;;;;;18.08;48.31;100523.88;4957109;29;1034;-51
2022/06/24 05:59:56;;;;;;;;;;;;;;;17.65;50.09;100518.19;4956767;29;1090;-50
2022/06/24 06:02:22;;;;;;;;;;;;;;;17.60;51.19;100524.56;4956761;29;1977;-49
2022/06/24 06:04:48;;;;;;;;;;;;;;;17.48;51.78;100526.03;4956444;29;990;-49
2022/06/24 06:07:14;;;;;;;;;;;;;;;17.42;52.41;100537.03;4955994;29;839;-52
2022/06/24 06:09:39;;;;;;;;;;;;;;;17.42;52.71;100528.78;4956458;29;1003;-52
2022/06/24 06:12:05;;;;;;;;;;;;;;;17.40;53.16;100527.44;4956078;28;968;-53
2022/06/24 06:14:30;;;;;;;;;;;;;;;17.31;53.72;100532.72;4959466;28;1200;-55
2022/06/24 06:16:56;;;;;;;;;;;;;;;17.24;54.09;100523.97;4959434;28;1485;-55
2022/06/24 06:19:21;;;;;;;;;;;;;;;17.33;55.24;100530.50;4962055;28;1151;-57
2022/06/24 06:21:46;;;;;;;;;;;;;;;17.27;56.07;100539.88;4955283;28;2100;-56
2022/06/24 06:24:12;;;;;;;;;;;;;;;17.15;56.10;100545.72;4962891;28;1891;-55
2022/06/24 06:26:37;;;;;;;;;;;;;;;17.10;56.51;100543.00;4961199;28;1010;-55
2022/06/24 06:29:04;;;;;;;;;;;;;;;17.06;56.61;100541.94;4967549;28;983;-56
2022/06/24 06:31:29;;;;;;;;;;;;;;;17.04;56.57;100550.47;4962644;28;1133;-56
2022/06/24 06:33:55;;;;;;;;;;;;;;;16.99;56.92;100555.16;4959576;29;1144;-57
2022/06/24 06:36:21;;;;;;;;;;;;;;;16.95;57.08;100556.81;4960352;29;983;-54
2022/06/24 06:38:46;;;;;;;;;;;;;;;16.92;56.89;100552.72;4959832;28;1133;-55
2022/06/24 06:41:15;;;;;;;;;;;;;;;16.87;57.06;100555.44;4958722;28;1116;-55
2022/06/24 06:43:40;;;;;;;;;;;;;;;16.81;57.62;100553.81;4964494;28;1914;-53
2022/06/24 06:46:10;;;;;;;;;;;;;;;16.71;58.21;100562.91;4959693;28;1168;-51
2022/06/24 06:48:35;;;;;;;;;;;;;;;16.74;57.95;100563.16;4962243;28;1030;-53
2022/06/24 06:51:00;;;;;;;;;;;;;;;16.72;58.12;100562.63;4959112;28;1428;-48
2022/06/24 06:53:26;;;;;;;;;;;;;;;16.56;58.50;100555.53;4942214;29;1410;-49
2022/06/24 06:55:52;;;;;;;;;;;;;;;16.57;58.62;100570.91;4959822;28;1180;-51
2022/06/24 06:58:21;;;;;;;;;;;;;;;16.53;58.72;100567.91;4966661;28;1007;-51
2022/06/24 07:00:47;;;;;;;;;;;;;;;16.58;58.97;100565.16;4960421;28;931;-53
2022/06/24 07:03:12;;;;;;;;;;;;;;;16.52;58.95;100576.41;4965160;28;1910;-52
2022/06/24 07:05:38;;;;;;;;;;;;;;;16.57;58.70;100563.50;4959471;29;1232;-53
2022/06/24 07:08:04;;;;;;;;;;;;;;;16.59;58.80;100571.44;4967221;28;1060;-51
2022/06/24 07:10:29;;;;;;;;;;;;;;;16.66;58.32;100560.19;4968695;28;1027;-50
2022/06/24 07:12:54;;;;;;;;;;;;;;;16.55;58.82;100562.97;4964872;28;1384;-52
2022/06/24 07:15:20;;;;;;;;;;;;;;;16.58;58.92;100558.84;4959995;28;925;-50
2022/06/24 07:17:45;;;;;;;;;;;;;;;16.54;58.90;100555.00;4964227;28;1461;-55
2022/06/24 07:20:11;;;;;;;;;;;;;;;16.48;58.95;100551.47;4958390;29;1136;-50
2022/06/24 07:22:36;;;;;;;;;;;;;;;16.45;59.09;100545.69;4959828;29;1976;-55
2022/06/24 07:25:02;;;;;;;;;;;;;;;16.42;59.24;100550.66;4939897;29;1285;-52
2022/06/24 07:27:28;;;;;;;;;;;;;;;16.41;59.05;100551.75;4962046;28;991;-50
2022/06/24 07:29:53;;;;;;;;;;;;;;;16.37;59.12;100552.59;4944566;28;1228;-50
2022/06/24 07:32:18;;;;;;;;;;;;;;;16.36;59.65;100556.41;4960044;29;1003;-50
2022/06/24 07:34:44;;;;;;;;;;;;;;;16.35;59.37;100555.56;4959380;29;1205;-50
2022/06/24 07:37:09;;;;;;;;;;;;;;;16.31;59.57;100543.50;4959603;29;838;-54
2022/06/24 07:39:35;;;;;;;;;;;;;;;16.48;59.55;100545.13;4954292;28;1521;-53
2022/06/24 07:42:00;;;;;;;;;;;;;;;16.32;59.61;100541.59;4968973;28;1907;-48
2022/06/24 07:44:26;;;;;;;;;;;;;;;16.30;59.63;100539.16;4957723;29;1003;-51
2022/06/24 07:46:51;;;;;;;;;;;;;;;16.28;59.36;100543.25;4957748;29;1200;-52
2022/06/24 07:49:17;;;;;;;;;;;;;;;16.21;59.27;100538.06;4958839;29;1002;-53
2022/06/24 07:51:42;;;;;;;;;;;;;;;16.20;59.30;100547.38;4964541;28;993;-48
2022/06/24 07:54:08;;;;;;;;;;;;;;;16.18;59.36;100544.91;4957131;28;1257;-49
2022/06/24 07:59:18;;;;;;;;;;;;;;;16.16;59.34;100540.78;4956533;28;914;-53
2022/06/24 08:01:44;;;;;;;;;;;;;;;16.16;59.40;100524.34;4957359;29;1100;-52
2022/06/24 08:04:09;;;;;;;;;;;;;;;16.09;59.54;100530.13;4956233;29;1902;-49
2022/06/24 08:06:35;;;;;;;;;;;;;;;16.11;59.34;100527.91;4957389;28;1144;-52
2022/06/24 08:09:02;;;;;;;;;;;;;;;16.06;59.16;100525.16;4961121;28;1311;-54
2022/06/24 08:11:27;;;;;;;;;;;;;;;16.07;59.52;100522.19;4959028;28;1117;-54
2022/06/24 08:13:54;;;;;;;;;;;;;;;16.07;59.09;100516.69;4956373;29;1054;-49
2022/06/24 08:16:19;;;;;;;;;;;;;;;16.11;59.27;100522.44;4959469;28;970;-53
2022/06/24 08:18:45;;;;;;;;;;;;;;;16.04;59.26;100522.72;4958682;29;1138;-50
2022/06/24 08:21:10;;;;;;;;;;;;;;;16.06;59.38;100536.97;4958469;29;952;-46
2022/06/24 08:23:36;;;;;;;;;;;;;;;16.01;59.17;100534.22;4958191;29;1891;-51
2022/06/24 08:26:01;;;;;;;;;;;;;;;16.02;59.15;100526.81;4955757;28;1026;-56
2022/06/24 08:28:26;;;;;;;;;;;;;;;16.01;59.08;100531.50;4953632;29;1283;-54
2022/06/24 08:30:52;;;;;;;;;;;;;;;16.00;59.25;100529.84;4955050;28;1174;-52
2022/06/24 08:33:17;;;;;;;;;;;;;;;15.96;59.17;100528.75;4951722;29;1309;-52
2022/06/24 08:35:43;;;;;;;;;;;;;;;15.94;59.17;100533.69;4950523;28;1055;-53
2022/06/24 08:38:08;;;;;;;;;;;;;;;15.95;59.06;100521.63;4950909;28;1221;-49
2022/06/24 08:40:34;;;;;;;;;;;;;;;15.93;59.30;100525.75;4952429;29;1189;-48
2022/06/24 08:43:00;;;;;;;;;;;;;;;15.93;59.24;100514.78;4958348;29;1910;-52
2022/06/24 08:45:26;;;;;;;;;;;;;;;15.94;59.25;100513.69;4961970;28;1149;-53
2022/06/24 08:47:51;;;;;;;;;;;;;;;15.89;59.33;100511.75;4958378;29;978;-52
2022/06/24 08:50:17;;;;;;;;;;;;;;;15.90;59.18;100516.16;4956515;28;1109;-51
2022/06/24 08:52:46;;;;;;;;;;;;;;;15.94;59.28;100506.28;4958291;29;1174;-49
2022/06/24 08:55:11;;;;;;;;;;;;;;;15.90;59.10;100511.47;4958237;29;1110;-49
2022/06/24 08:57:37;;;;;;;;;;;;;;;15.92;59.21;100505.72;4944340;29;1161;-49
2022/06/24 09:00:02;;;;;;;;;;;;;;;15.89;59.53;100506.28;4958083;29;1014;-50
2022/06/24 09:02:28;;;;;;;;;;;;;;;15.87;59.23;100498.31;4957613;29;1977;-47
2022/06/24 09:04:58;;;;;;;;;;;;;;;15.88;59.31;100488.19;4956694;29;1334;-48
2022/06/24 09:07:24;;;;;;;;;;;;;;;15.85;59.30;100491.47;4958825;28;1283;-47
2022/06/24 09:09:56;;;;;;;;;;;;;;;15.86;59.22;100491.19;4959828;28;1014;-50
2022/06/24 09:12:22;;;;;;;;;;;;;;;15.89;59.53;100484.34;4964791;28;1228;-48
2022/06/24 09:14:48;;;;;;;;;;;;;;;15.92;59.27;100483.78;4960866;28;1401;-52
2022/06/24 09:17:13;;;;;;;;;;;;;;;15.83;59.44;100489.00;4957439;28;1342;-50
2022/06/24 09:19:39;;;;;;;;;;;;;;;15.88;59.55;100485.44;4957998;28;892;-51
2022/06/24 09:22:05;;;;;;;;;;;;;;;15.84;59.60;100487.91;4959207;28;2012;-47
2022/06/24 09:24:51;;;;;;;;;;;;;;;15.88;59.19;100501.91;4956615;28;1195;-48
2022/06/24 09:27:17;;;;;;;;;;;;;;;15.84;59.50;100478.88;4956553;28;1232;-52
2022/06/24 09:29:46;;;;;;;;;;;;;;;15.84;59.45;100484.34;4955514;29;1453;-52
2022/06/24 09:32:11;;;;;;;;;;;;;;;15.82;59.71;100492.03;4957777;28;1086;-49
2022/06/24 09:34:37;;;;;;;;;;;;;;;15.82;59.65;100486.53;4965997;28;1166;-51
2022/06/24 09:37:02;;;;;;;;;;;;;;;15.82;59.53;100481.06;4955115;29;1083;-52
2022/06/24 09:39:28;;;;;;;;;;;;;;;15.82;59.54;100490.13;4955852;29;1294;-52
2022/06/24 09:41:54;;;;;;;;;;;;;;;15.84;59.50;100479.69;4940108;28;1275;-50
2022/06/24 09:44:19;;;;;;;;;;;;;;;15.82;59.68;100481.06;4956572;28;1898;-49
2022/06/24 09:46:45;;;;;;;;;;;;;;;15.83;59.79;100483.53;4957168;28;1043;-44
2022/06/24 09:49:11;;;;;;;;;;;;;;;15.83;59.56;100477.22;4954835;28;2398;-47
2022/06/24 09:51:39;;;;;;;;;;;;;;;15.86;59.59;100472.00;4958681;28;1444;-50
2022/06/24 09:54:04;;;;;;;;;;;;;;;15.83;59.93;100477.22;4961024;28;1398;-47
2022/06/24 09:56:30;;;;;;;;;;;;;;;15.83;59.63;100471.75;4957836;28;1173;-50
2022/06/24 10:01:53;;;;;;;;;;;;;;;15.79;59.90;100468.72;4938437;29;1315;-50
2022/06/24 10:04:19;;;;;;;;;;;;;;;15.78;59.85;100468.97;4957353;29;1981;-49
2022/06/24 10:06:47;;;;;;;;;;;;;;;15.79;59.57;100473.34;4960793;28;1161;-52
2022/06/24 10:09:12;;;;;;;;;;;;;;;15.78;59.55;100485.41;4956434;29;1094;-48
2022/06/24 10:11:38;;;;;;;;;;;;;;;15.84;59.71;100470.66;4937795;29;996;-52
2022/06/24 10:14:04;;;;;;;;;;;;;;;15.81;59.73;100468.44;4956646;29;1161;-51
2022/06/24 10:16:29;;;;;;;;;;;;;;;15.82;59.51;100470.09;4957954;29;1081;-47
2022/06/24 10:18:55;;;;;;;;;;;;;;;15.82;59.67;100464.59;4957504;29;1220;-46
2022/06/24 10:21:20;;;;;;;;;;;;;;;15.80;59.75;100464.06;4963310;28;827;-46
2022/06/24 10:23:50;;;;;;;;;;;;;;;15.82;59.66;100464.59;4940828;28;1942;-48
2022/06/24 10:26:31;;;;;;;;;;;;;;;15.81;59.60;100463.78;4952075;29;1338;-50
2022/06/24 10:28:59;;;;;;;;;;;;;;;15.81;59.67;100461.06;4953130;28;1288;-50
2022/06/24 10:34:09;;;;;;;;;;;;;;;15.83;59.51;100469.81;4951610;29;1489;-46
2022/06/24 10:36:34;;;;;;;;;;;;;;;15.78;59.57;100456.09;4950784;28;1185;-50
2022/06/24 10:39:09;;;;;;;;;;;;;;;15.80;59.73;100455.84;4952103;28;1181;-48
2022/06/24 10:41:38;;;;;;;;;;;;;;;15.74;59.71;100447.59;4952600;29;1645;-49
2022/06/24 10:44:22;;;;;;;;;;;;;;;15.80;59.56;100458.59;4954555;29;2049;-53
2022/06/24 10:47:08;;;;;;;;;;;;;;;15.77;59.51;100457.19;4963916;28;1126;-50
2022/06/24 10:49:52;;;;;;;;;;;;;;;15.77;59.49;100459.94;4955106;28;1172;-50
2022/06/24 10:52:33;;;;;;;;;;;;;;;15.72;59.58;100448.97;4953881;29;1004;-51
2022/06/24 10:55:23;;;;;;;;;;;;;;;15.77;59.37;100448.97;4955552;29;1146;-49
2022/06/24 10:57:50;;;;;;;;;;;;;;;15.74;59.39;100463.22;4943357;29;1590;-50
2022/06/24 11:00:17;;;;;;;;;;;;;;;15.77;59.69;100457.19;4958500;28;1236;-45
2022/06/24 11:02:42;;;;;;;;;;;;;;;15.72;59.68;100458.03;4956549;28;1971;-51
2022/06/24 11:05:10;;;;;;;;;;;;;;;15.74;59.67;100453.06;4943512;28;1125;-49
2022/06/24 11:07:39;;;;;;;;;;;;;;;15.79;59.62;100444.03;4962545;28;958;-49
2022/06/24 11:10:14;;;;;;;;;;;;;;;15.78;59.61;100447.88;4941811;29;1240;-50
2022/06/24 11:12:39;;;;;;;;;;;;;;;15.78;59.48;100458.00;4954129;28;1386;-51
2022/06/24 11:15:05;;;;;;;;;;;;;;;15.78;59.70;100458.00;4954359;29;1252;-54
2022/06/24 11:17:30;;;;;;;;;;;;;;;15.77;59.43;100456.34;4958586;29;983;-54
2022/06/24 11:19:56;;;;;;;;;;;;;;;15.77;59.57;100453.59;4959196;29;1018;-53
2022/06/24 11:22:28;;;;;;;;;;;;;;;15.74;59.45;100447.59;4941473;29;1967;-56
2022/06/24 11:24:54;;;;;;;;;;;;;;;15.74;59.83;100439.38;4965111;28;935;-52
2022/06/24 11:27:19;;;;;;;;;;;;;;;15.74;59.78;100444.84;4947338;29;859;-53
2022/06/24 11:29:54;;;;;;;;;;;;;;;15.73;59.51;100429.50;4959569;29;982;-50
2022/06/24 11:32:20;;;;;;;;;;;;;;;15.77;59.48;100434.41;4957446;29;1292;-50
2022/06/24 11:34:45;;;;;;;;;;;;;;;15.73;59.63;100428.69;4960460;28;1098;-52
2022/06/24 11:37:11;;;;;;;;;;;;;;;15.75;59.39;100434.69;4964774;28;1011;-52
2022/06/24 11:39:37;;;;;;;;;;;;;;;15.77;59.64;100429.78;4955119;29;1244;-48
2022/06/24 11:42:02;;;;;;;;;;;;;;;15.74;59.74;100420.19;4958296;29;1902;-53
2022/06/24 11:44:48;;;;;;;;;;;;;;;15.78;59.43;100423.19;4936507;29;1253;-51
2022/06/24 11:47:14;;;;;;;;;;;;;;;15.79;59.76;100429.50;4953184;29;1210;-48
2022/06/24 11:49:42;;;;;;;;;;;;;;;15.79;59.61;100424.84;4954554;29;1234;-48
2022/06/24 11:52:07;;;;;;;;;;;;;;;15.78;59.77;100425.09;4958563;28;1003;-52
2022/06/24 11:54:33;;;;;;;;;;;;;;;15.78;59.64;100423.19;4958723;28;1122;-48
2022/06/24 11:56:58;;;;;;;;;;;;;;;15.77;59.79;100412.47;4956926;28;1283;-53
2022/06/24 11:59:26;;;;;;;;;;;;;;;15.78;59.65;100420.47;4955288;29;1200;-51
2022/06/24 12:01:51;;;;;;;;;;;;;;;15.77;59.70;100420.72;4958024;29;1185;-51
2022/06/24 12:04:17;;;;;;;;;;;;;;;15.74;59.49;100414.69;4939590;28;1910;-50
2022/06/24 12:06:44;;;;;;;;;;;;;;;15.75;59.75;100420.97;4968588;28;1047;-50
2022/06/24 12:09:09;;;;;;;;;;;;;;;15.79;59.82;100424.84;4961292;28;1260;-48
2022/06/24 12:11:38;;;;;;;;;;;;;;;15.79;59.68;100424.00;4941712;29;1216;-47
2022/06/24 12:14:05;;;;;;;;;;;;;;;15.78;59.59;100430.59;4956353;29;1486;-52
2022/06/24 12:16:49;;;;;;;;;;;;;;;15.76;59.49;100436.34;4955047;29;1260;-50
2022/06/24 12:19:14;;;;;;;;;;;;;;;15.75;59.81;100437.44;4957302;29;1247;-49
2022/06/24 12:21:40;;;;;;;;;;;;;;;15.77;59.66;100439.91;4957950;28;886;-49
2022/06/24 12:24:22;;;;;;;;;;;;;;;15.76;59.77;100439.09;4959767;28;1906;-50
2022/06/24 12:26:48;;;;;;;;;;;;;;;15.80;59.47;100440.22;4953919;28;1005;-52
2022/06/24 12:29:14;;;;;;;;;;;;;;;15.79;59.60;100448.69;4937153;29;1261;-52
2022/06/24 12:31:48;;;;;;;;;;;;;;;15.76;59.80;100441.03;4938351;29;1211;-50
2022/06/24 12:34:23;;;;;;;;;;;;;;;15.77;59.85;100448.13;4956339;28;994;-49
2022/06/24 12:36:54;;;;;;;;;;;;;;;15.74;59.56;100444.84;4956281;28;1304;-49
2022/06/24 12:39:21;;;;;;;;;;;;;;;15.74;59.54;100447.59;4963898;28;940;-46
2022/06/24 12:41:47;;;;;;;;;;;;;;;15.74;59.67;100442.09;4945879;28;1201;-48
2022/06/24 12:44:13;;;;;;;;;;;;;;;15.86;59.38;100439.09;4963694;28;1969;-49
2022/06/24 12:50:34;;;;;;;;;;;;;;;15.78;59.63;100431.41;4957812;28;1213;-48
2022/06/24 12:52:09;;;;;;;;;;;;;;;15.79;59.74;100437.72;4959541;28;1412;-45
2022/06/24 12:54:34;;;;;;;;;;;;;;;15.76;59.81;100430.06;4957982;28;1227;-48
2022/06/24 12:56:59;;;;;;;;;;;;;;;15.78;59.61;100430.59;4959276;28;959;-50
2022/06/24 12:59:29;;;;;;;;;;;;;;;15.79;59.64;100426.75;4941053;29;1213;-53
2022/06/24 13:01:54;;;;;;;;;;;;;;;15.84;59.80;100424.03;4957997;29;955;-48
2022/06/24 13:04:20;;;;;;;;;;;;;;;15.90;59.50;100433.88;4954898;29;1911;-52